Time;durP1;ratioP1;P1;durP2;ratioP2;P2;SDS_P1;SDS_P2;PMS_P1;PMS_P2;Temp;Humidity;BMP_temperature;BMP_pressure;BME280_temperature;BME280_humidity;BME280_pressure;Samples;Min_cycle;Max_cycle;Signal;HPM_P1;HPM_P2
2023/06/18 00:02:06;;;;;;;5.20;4.80;;;23.90;58.10;;;;;;4995688;28;20038;-90
2023/06/18 00:04:33;;;;;;;5.18;4.78;;;23.90;58.20;;;;;;4987002;28;20450;-91
2023/06/18 00:06:59;;;;;;;5.45;5.03;;;23.90;58.30;;;;;;4989321;28;20141;-89
2023/06/18 00:09:31;;;;;;;5.45;5.07;;;23.90;58.50;;;;;;4989151;28;20079;-89
2023/06/18 00:11:56;;;;;;;5.30;4.90;;;23.80;58.30;;;;;;4984707;28;20085;-89
2023/06/18 00:14:23;;;;;;;4.95;4.50;;;23.80;58.40;;;;;;4994796;28;20034;-89
2023/06/18 00:16:50;;;;;;;5.57;5.07;;;23.70;58.30;;;;;;4986667;28;20038;-90
2023/06/18 00:19:19;;;;;;;4.60;4.30;;;23.70;58.40;;;;;;4982897;28;20197;-92
2023/06/18 00:21:46;;;;;;;4.75;4.35;;;23.70;58.50;;;;;;4990567;28;20034;-92
2023/06/18 00:24:12;;;;;;;4.97;4.57;;;23.60;58.40;;;;;;4993996;28;20041;-90
2023/06/18 00:26:38;;;;;;;5.03;4.63;;;23.60;58.50;;;;;;4991080;28;20125;-87
2023/06/18 00:29:04;;;;;;;5.45;5.05;;;23.60;58.60;;;;;;4988209;28;20038;-87
2023/06/18 00:31:34;;;;;;;4.57;4.28;;;23.60;58.70;;;;;;4973662;28;20026;-88
2023/06/18 00:34:06;;;;;;;4.60;4.20;;;23.50;58.50;;;;;;4990211;28;20061;-90
2023/06/18 00:36:34;;;;;;;5.40;5.00;;;23.50;58.70;;;;;;4988897;28;20049;-89
2023/06/18 00:39:02;;;;;;;5.60;5.10;;;23.50;58.70;;;;;;4986265;28;20034;-88
2023/06/18 00:41:30;;;;;;;5.00;4.60;;;23.40;58.70;;;;;;4988650;28;20046;-92
2023/06/18 00:43:58;;;;;;;5.82;5.43;;;23.30;58.60;;;;;;4990822;28;20038;-90
2023/06/18 00:46:26;;;;;;;4.90;4.50;;;23.30;58.70;;;;;;4996805;28;20523;-90
2023/06/18 00:48:53;;;;;;;5.50;5.05;;;23.30;58.80;;;;;;5000646;28;20034;-90
2023/06/18 00:51:22;;;;;;;5.07;4.68;;;23.30;58.90;;;;;;4991805;28;20129;-92
2023/06/18 00:53:51;;;;;;;5.72;5.22;;;23.20;58.80;;;;;;5001087;28;20107;-90
2023/06/18 00:56:22;;;;;;;5.65;5.20;;;23.20;58.90;;;;;;4988349;28;20049;-90
2023/06/18 00:58:48;;;;;;;5.43;4.93;;;23.10;58.80;;;;;;4972328;28;20033;-90
2023/06/18 01:01:15;;;;;;;6.00;5.50;;;23.10;58.90;;;;;;4989647;28;20507;-91
2023/06/18 01:03:42;;;;;;;5.53;5.13;;;23.00;58.80;;;;;;4996186;28;20555;-88
2023/06/18 01:06:12;;;;;;;6.57;6.07;;;23.00;59.10;;;;;;4965573;28;20339;-89
2023/06/18 01:08:40;;;;;;;6.15;5.65;;;22.90;58.90;;;;;;4981546;28;20038;-89
2023/06/18 01:11:09;;;;;;;6.57;6.07;;;22.90;59.00;;;;;;4990046;28;20114;-89
2023/06/18 01:13:41;;;;;;;5.95;5.55;;;22.90;59.20;;;;;;4991758;28;20058;-88
2023/06/18 01:16:08;;;;;;;6.82;6.22;;;22.80;59.10;;;;;;4987658;28;20042;-89
2023/06/18 01:18:55;;;;;;;6.18;5.68;;;22.80;59.20;;;;;;4981014;28;20034;-90
2023/06/18 01:21:30;;;;;;;6.88;6.38;;;22.70;59.20;;;;;;4999919;28;20390;-89
2023/06/18 01:24:11;;;;;;;5.93;5.53;;;22.70;59.20;;;;;;4996158;28;20035;-93
2023/06/18 01:26:41;;;;;;;6.93;6.43;;;22.60;59.10;;;;;;5006991;28;20036;-96
2023/06/18 01:29:10;;;;;;;6.65;5.97;;;22.60;59.10;;;;;;5004656;28;20271;-93
2023/06/18 01:31:39;;;;;;;6.55;5.95;;;22.50;59.10;;;;;;4978153;28;20088;-91
2023/06/18 01:34:06;;;;;;;6.75;5.75;;;22.50;59.20;;;;;;4994801;28;20082;-91
2023/06/18 01:36:56;;;;;;;7.13;6.47;;;22.50;59.30;;;;;;4995508;28;20107;-92
2023/06/18 01:39:27;;;;;;;5.88;5.47;;;22.40;59.20;;;;;;4994477;28;20118;-91
2023/06/18 01:42:01;;;;;;;6.10;5.60;;;22.40;59.30;;;;;;4982732;28;20038;-91
2023/06/18 01:44:30;;;;;;;6.57;6.05;;;22.30;59.20;;;;;;4990231;28;20038;-93
2023/06/18 01:46:58;;;;;;;5.97;5.53;;;22.30;59.20;;;;;;4991561;28;20050;-91
2023/06/18 01:49:26;;;;;;;6.63;6.10;;;22.30;59.40;;;;;;5000414;28;20041;-91
2023/06/18 01:51:53;;;;;;;5.88;5.47;;;22.20;59.30;;;;;;4984867;28;20474;-93
2023/06/18 01:54:26;;;;;;;6.05;5.55;;;22.20;59.40;;;;;;4994178;28;20050;-92
2023/06/18 01:56:53;;;;;;;5.93;5.53;;;22.20;59.40;;;;;;4993931;28;20049;-92
2023/06/18 01:59:20;;;;;;;6.13;5.63;;;22.20;59.60;;;;;;5001052;28;20038;-91
2023/06/18 02:01:48;;;;;;;5.43;5.03;;;22.10;59.50;;;;;;5000386;28;20038;-92
2023/06/18 02:04:14;;;;;;;5.97;5.53;;;22.10;59.60;;;;;;4987334;28;20038;-92
2023/06/18 02:06:40;;;;;;;6.53;6.00;;;22.10;59.60;;;;;;4998240;28;20056;-91
2023/06/18 02:09:07;;;;;;;6.00;5.50;;;22.10;59.70;;;;;;4991257;28;20034;-91
2023/06/18 02:11:33;;;;;;;6.03;5.53;;;22.00;59.50;;;;;;4971625;28;20019;-91
2023/06/18 02:14:00;;;;;;;6.82;6.30;;;22.00;59.60;;;;;;4991198;28;20547;-91
2023/06/18 02:16:29;;;;;;;6.68;6.13;;;22.00;59.60;;;;;;4975538;28;20066;-88
2023/06/18 02:18:59;;;;;;;6.55;6.00;;;22.00;59.70;;;;;;4988940;28;20060;-92
2023/06/18 02:21:28;;;;;;;6.07;5.57;;;22.00;59.70;;;;;;4988127;28;20509;-89
2023/06/18 02:23:55;;;;;;;7.03;6.43;;;21.90;59.60;;;;;;4991080;28;20034;-90
2023/06/18 02:26:22;;;;;;;6.40;5.90;;;22.00;59.80;;;;;;4991324;28;20027;-91
2023/06/18 02:28:48;;;;;;;5.90;5.43;;;21.90;59.70;;;;;;4991614;28;20087;-91
2023/06/18 02:31:15;;;;;;;6.38;5.88;;;21.90;59.70;;;;;;4992399;28;20393;-91
2023/06/18 02:33:41;;;;;;;6.60;6.10;;;21.90;59.80;;;;;;4991366;28;20504;-93
2023/06/18 02:36:21;;;;;;;7.22;6.63;;;21.90;59.90;;;;;;4989497;28;20367;-92
2023/06/18 02:38:47;;;;;;;5.78;5.28;;;21.90;59.90;;;;;;4991453;28;20102;-92
2023/06/18 02:41:14;;;;;;;5.70;5.30;;;21.80;59.80;;;;;;4975319;28;20125;-92
2023/06/18 02:43:42;;;;;;;6.30;5.80;;;21.80;59.80;;;;;;4991138;28;20035;-92
2023/06/18 02:46:12;;;;;;;5.75;5.25;;;21.80;59.90;;;;;;4992273;28;20043;-92
2023/06/18 02:48:38;;;;;;;5.97;5.57;;;21.80;59.90;;;;;;4991317;28;20112;-91
2023/06/18 02:51:07;;;;;;;6.28;5.78;;;21.80;60.00;;;;;;4992689;28;20092;-91
2023/06/18 02:53:40;;;;;;;6.13;5.60;;;21.70;59.80;;;;;;4991039;28;20068;-94
2023/06/18 02:56:06;;;;;;;5.60;5.10;;;21.70;59.80;;;;;;4972060;28;20108;-90
2023/06/18 02:58:35;;;;;;;5.88;5.38;;;21.70;60.00;;;;;;4990524;28;20106;-90
2023/06/18 03:01:07;;;;;;;5.97;5.47;;;21.70;59.90;;;;;;4982131;28;20042;-90
2023/06/18 03:03:38;;;;;;;5.97;5.47;;;21.70;60.00;;;;;;4990119;28;20034;-89
2023/06/18 03:06:04;;;;;;;6.97;6.47;;;21.70;60.00;;;;;;4989767;28;20066;-89
2023/06/18 03:08:30;;;;;;;6.13;5.68;;;21.70;60.10;;;;;;4971036;28;20119;-91
2023/06/18 03:10:57;;;;;;;6.65;6.05;;;21.70;60.10;;;;;;4988070;28;20060;-91
2023/06/18 03:13:26;;;;;;;5.40;5.00;;;21.60;60.00;;;;;;4989300;28;20101;-89
2023/06/18 03:15:55;;;;;;;6.40;5.88;;;21.60;60.00;;;;;;4990928;28;20034;-89
2023/06/18 03:18:21;;;;;;;5.35;4.95;;;21.60;60.00;;;;;;4989400;28;20038;-89
2023/06/18 03:20:47;;;;;;;6.43;5.93;;;21.60;60.10;;;;;;5017599;28;20026;-90
2023/06/18 03:23:13;;;;;;;5.78;5.38;;;21.60;60.10;;;;;;4995002;28;20045;-90
2023/06/18 03:25:44;;;;;;;5.57;5.15;;;21.60;60.20;;;;;;5011737;28;20038;-89
2023/06/18 03:28:19;;;;;;;5.20;4.80;;;21.60;60.20;;;;;;4996438;28;20027;-88
2023/06/18 03:30:45;;;;;;;5.72;5.32;;;21.50;60.10;;;;;;4996883;28;20042;-87
2023/06/18 03:33:13;;;;;;;5.80;5.38;;;21.50;60.20;;;;;;5001002;28;20064;-89
2023/06/18 03:35:41;;;;;;;6.22;5.72;;;21.50;60.20;;;;;;5008502;28;20049;-90
2023/06/18 03:38:09;;;;;;;5.38;4.97;;;21.40;60.10;;;;;;4992701;28;20027;-89
2023/06/18 03:40:35;;;;;;;6.45;5.95;;;21.40;60.20;;;;;;4992957;28;20132;-90
2023/06/18 03:43:01;;;;;;;5.70;5.30;;;21.40;60.20;;;;;;4992717;28;20053;-90
2023/06/18 03:45:27;;;;;;;5.70;5.22;;;21.40;60.30;;;;;;4995676;28;20113;-88
2023/06/18 03:47:53;;;;;;;5.57;5.18;;;21.30;60.20;;;;;;4994313;28;20146;-88
2023/06/18 03:50:23;;;;;;;5.97;5.47;;;21.30;60.20;;;;;;5001791;28;20057;-87
2023/06/18 03:52:49;;;;;;;5.50;5.10;;;21.30;60.30;;;;;;5003594;28;20121;-92
2023/06/18 03:55:16;;;;;;;5.88;5.45;;;21.30;60.30;;;;;;5001366;28;20037;-93
2023/06/18 03:57:44;;;;;;;5.35;4.95;;;21.20;60.20;;;;;;4989410;28;20093;-92
2023/06/18 04:00:13;;;;;;;5.18;4.78;;;21.20;60.30;;;;;;5004910;28;20086;-93
2023/06/18 04:02:40;;;;;;;5.22;4.82;;;21.20;60.30;;;;;;4999557;28;20038;-92
2023/06/18 04:05:13;;;;;;;5.90;5.43;;;21.20;60.40;;;;;;4994968;28;20072;-90
2023/06/18 04:07:39;;;;;;;6.10;5.60;;;21.20;60.50;;;;;;4995936;28;20129;-90
2023/06/18 04:10:06;;;;;;;5.68;5.18;;;21.10;60.30;;;;;;4993408;28;20034;-91
2023/06/18 04:12:32;;;;;;;5.90;5.30;;;21.10;60.40;;;;;;5005256;28;20070;-90
2023/06/18 04:14:58;;;;;;;5.75;5.30;;;21.10;60.50;;;;;;4986272;28;20444;-91
2023/06/18 04:17:41;;;;;;;5.60;5.20;;;21.00;60.40;;;;;;4980670;28;20042;-91
2023/06/18 04:20:11;;;;;;;5.43;4.93;;;21.00;60.50;;;;;;4984786;28;20135;-91
2023/06/18 04:22:38;;;;;;;6.03;5.43;;;21.10;60.70;;;;;;4994965;28;20069;-90
2023/06/18 04:25:10;;;;;;;5.38;4.97;;;21.10;60.70;;;;;;4995768;28;20034;-90
2023/06/18 04:27:38;;;;;;;6.10;5.60;;;21.00;60.50;;;;;;4989182;28;20034;-90
2023/06/18 04:30:09;;;;;;;5.38;4.97;;;21.00;60.50;;;;;;4992745;28;20093;-90
2023/06/18 04:32:38;;;;;;;5.13;4.72;;;21.00;60.50;;;;;;4989847;28;20038;-93
2023/06/18 04:35:05;;;;;;;5.28;4.78;;;20.90;60.40;;;;;;5004009;28;20045;-92
2023/06/18 04:37:33;;;;;;;5.53;5.07;;;21.00;60.70;;;;;;4993666;28;20307;-92
2023/06/18 04:40:04;;;;;;;5.18;4.70;;;20.90;60.50;;;;;;4991181;28;20190;-93
2023/06/18 04:42:31;;;;;;;5.10;4.70;;;20.90;61.10;;;;;;4993656;28;20096;-92
2023/06/18 04:44:58;;;;;;;5.15;4.75;;;20.90;60.60;;;;;;4993808;28;20027;-90
2023/06/18 04:47:25;;;;;;;5.18;4.78;;;20.90;60.70;;;;;;4989942;28;20034;-91
2023/06/18 04:49:52;;;;;;;5.45;4.90;;;20.90;60.70;;;;;;4993336;28;20477;-90
2023/06/18 04:52:18;;;;;;;5.55;5.15;;;20.90;60.70;;;;;;5000163;28;20030;-93
2023/06/18 04:54:48;;;;;;;5.32;4.93;;;20.90;60.70;;;;;;4988261;28;20035;-93
2023/06/18 04:57:16;;;;;;;5.47;5.07;;;20.90;60.70;;;;;;4994933;28;20077;-87
2023/06/18 04:59:46;;;;;;;5.18;4.82;;;20.90;60.70;;;;;;5010350;28;20033;-88
2023/06/18 05:02:12;;;;;;;4.32;4.03;;;20.90;60.70;;;;;;4984998;28;20490;-83
2023/06/18 05:04:39;;;;;;;5.38;4.93;;;20.90;60.80;;;;;;4979708;28;20066;-84
2023/06/18 05:07:05;;;;;;;5.03;4.63;;;20.90;60.70;;;;;;4983593;28;20030;-86
2023/06/18 05:09:39;;;;;;;5.17;4.77;;;20.90;60.70;;;;;;4984919;28;20030;-90
2023/06/18 05:12:06;;;;;;;5.78;5.05;;;20.90;60.70;;;;;;4989738;28;20026;-87
2023/06/18 05:14:34;;;;;;;5.05;4.60;;;20.90;60.70;;;;;;4977490;28;20057;-85
2023/06/18 05:17:01;;;;;;;4.20;3.90;;;21.00;60.90;;;;;;4982370;28;20202;-85
2023/06/18 05:19:27;;;;;;;4.85;4.30;;;21.00;60.80;;;;;;4981648;28;20022;-86
2023/06/18 05:21:53;;;;;;;5.43;5.00;;;21.00;61.30;;;;;;4984913;28;20080;-89
2023/06/18 05:24:25;;;;;;;5.18;4.78;;;21.10;60.80;;;;;;4985690;28;20041;-87
2023/06/18 05:26:54;;;;;;;5.15;4.75;;;21.10;60.80;;;;;;5002049;28;20053;-85
2023/06/18 05:29:20;;;;;;;5.97;5.47;;;21.10;60.70;;;;;;4986983;28;20592;-86
2023/06/18 05:31:49;;;;;;;5.32;4.85;;;21.20;60.90;;;;;;4998901;28;20077;-88
2023/06/18 05:34:24;;;;;;;4.90;4.50;;;21.20;60.90;;;;;;4995942;28;20041;-81
2023/06/18 05:36:51;;;;;;;4.90;4.50;;;21.30;60.80;;;;;;4966112;28;20087;-86
2023/06/18 05:39:17;;;;;;;5.22;4.82;;;21.30;60.70;;;;;;4983542;28;20524;-88
2023/06/18 05:41:43;;;;;;;4.97;4.57;;;21.50;60.80;;;;;;4961322;28;20034;-86
2023/06/18 05:44:10;;;;;;;5.13;4.70;;;21.60;60.80;;;;;;4970945;28;20442;-86
2023/06/18 05:46:37;;;;;;;5.03;4.63;;;21.70;60.80;;;;;;4959580;28;20103;-86
2023/06/18 05:49:03;;;;;;;4.45;4.15;;;21.80;60.70;;;;;;4981904;28;20249;-85
2023/06/18 05:51:30;;;;;;;5.25;4.85;;;22.00;60.80;;;;;;4983052;28;20042;-83
2023/06/18 05:54:15;;;;;;;4.80;4.50;;;22.20;61.00;;;;;;4981712;28;20058;-86
2023/06/18 05:56:41;;;;;;;4.85;4.45;;;22.30;60.90;;;;;;4982902;28;20468;-86
2023/06/18 05:59:08;;;;;;;7.13;6.07;;;22.40;60.80;;;;;;4980288;28;20032;-83
2023/06/18 06:01:42;;;;;;;4.72;4.35;;;22.50;60.90;;;;;;4963255;28;20398;-83
2023/06/18 06:04:19;;;;;;;5.60;5.20;;;22.70;61.30;;;;;;4978219;28;20112;-89
2023/06/18 06:06:51;;;;;;;5.75;5.25;;;22.90;61.40;;;;;;4980096;28;20034;-83
2023/06/18 06:09:18;;;;;;;6.10;5.50;;;23.10;61.40;;;;;;4983565;28;20030;-80
2023/06/18 06:11:44;;;;;;;5.47;4.93;;;23.30;61.40;;;;;;4973103;28;20033;-82
2023/06/18 06:14:12;;;;;;;5.47;4.93;;;23.60;61.50;;;;;;4978559;28;20111;-82
2023/06/18 06:16:39;;;;;;;5.75;5.20;;;23.80;61.40;;;;;;4961996;28;20046;-83
2023/06/18 06:19:06;;;;;;;5.68;5.28;;;24.10;61.50;;;;;;4967585;28;20060;-85
2023/06/18 06:21:33;;;;;;;5.80;5.30;;;24.30;61.50;;;;;;4976632;28;20517;-81
2023/06/18 06:23:59;;;;;;;6.57;5.25;;;24.50;61.40;;;;;;4980065;28;20041;-83
2023/06/18 06:26:26;;;;;;;5.93;5.43;;;24.70;61.40;;;;;;4962398;28;20135;-82
2023/06/18 06:28:52;;;;;;;6.38;5.88;;;24.80;61.30;;;;;;4992184;28;20111;-86
2023/06/18 06:31:22;;;;;;;5.82;5.32;;;24.90;61.30;;;;;;4981812;28;20548;-80
2023/06/18 06:33:48;;;;;;;6.45;5.85;;;24.90;61.10;;;;;;4973687;28;20045;-81
2023/06/18 06:36:14;;;;;;;5.60;5.10;;;25.00;61.30;;;;;;4990996;28;20034;-79
2023/06/18 06:38:42;;;;;;;6.88;6.30;;;25.00;61.20;;;;;;4974888;28;20281;-83
2023/06/18 06:41:08;;;;;;;5.78;5.28;;;25.00;61.30;;;;;;4967673;28;20575;-84
2023/06/18 06:43:38;;;;;;;6.28;5.68;;;24.90;61.20;;;;;;4979928;28;20062;-82
2023/06/18 06:46:43;;;;;;;6.13;5.65;;;24.80;61.20;;;;;;4972967;28;20181;-89
2023/06/18 06:49:21;;;;;;;6.35;5.85;;;24.80;61.30;;;;;;4977372;28;20150;-81
2023/06/18 06:51:54;;;;;;;6.68;5.75;;;24.80;61.30;;;;;;4980849;28;20038;-86
2023/06/18 06:54:24;;;;;;;6.80;6.20;;;24.90;61.40;;;;;;4979851;28;20485;-84
2023/06/18 06:56:51;;;;;;;6.72;6.07;;;24.90;61.30;;;;;;4978529;28;20814;-82
2023/06/18 06:59:37;;;;;;;6.50;6.00;;;25.00;61.40;;;;;;4963690;28;20050;-84
2023/06/18 07:02:03;;;;;;;7.03;6.32;;;25.00;61.30;;;;;;4977236;28;20044;-84
2023/06/18 07:04:29;;;;;;;7.35;6.65;;;25.00;61.20;;;;;;4962277;28;20027;-84
2023/06/18 07:06:55;;;;;;;8.73;6.57;;;25.10;61.20;;;;;;4979000;28;20310;-85
2023/06/18 07:09:21;;;;;;;7.15;6.47;;;25.10;61.10;;;;;;4964412;28;20042;-81
2023/06/18 07:11:47;;;;;;;6.28;5.78;;;25.10;61.00;;;;;;4974687;28;20113;-84
2023/06/18 07:14:16;;;;;;;6.63;6.13;;;25.20;61.00;;;;;;4978341;28;20093;-82
2023/06/18 07:16:43;;;;;;;7.20;6.68;;;25.20;60.90;;;;;;4976569;28;20043;-82
2023/06/18 07:19:08;;;;;;;6.22;5.72;;;25.30;60.80;;;;;;4974647;28;20498;-82
2023/06/18 07:21:35;;;;;;;7.18;6.68;;;25.40;60.70;;;;;;4959109;28;20104;-82
2023/06/18 07:24:01;;;;;;;6.65;6.05;;;25.50;60.50;;;;;;4984696;28;20092;-83
2023/06/18 07:26:27;;;;;;;7.65;7.05;;;25.60;60.50;;;;;;4974692;28;20749;-81
2023/06/18 07:28:53;;;;;;;7.50;6.90;;;25.60;60.30;;;;;;4980013;28;20109;-82
2023/06/18 07:31:19;;;;;;;6.97;6.32;;;25.70;60.10;;;;;;4970148;28;20137;-81
2023/06/18 07:33:45;;;;;;;7.88;7.28;;;25.80;60.00;;;;;;4978140;28;20357;-82
2023/06/18 07:36:11;;;;;;;7.80;7.13;;;25.80;59.90;;;;;;4977092;28;20133;-82
2023/06/18 07:38:37;;;;;;;8.43;7.72;;;25.90;59.80;;;;;;4984910;28;20507;-82
2023/06/18 07:41:03;;;;;;;8.77;8.00;;;26.10;59.70;;;;;;4978206;28;20069;-82
2023/06/18 07:43:29;;;;;;;8.15;7.47;;;26.20;59.30;;;;;;4981839;28;20161;-82
2023/06/18 07:45:58;;;;;;;8.30;7.68;;;26.30;59.00;;;;;;4981707;28;20498;-83
2023/06/18 07:48:24;;;;;;;10.00;9.20;;;26.50;58.80;;;;;;4978181;28;20253;-82
2023/06/18 07:50:50;;;;;;;8.45;7.70;;;26.70;58.70;;;;;;4990422;28;20056;-82
2023/06/18 07:53:16;;;;;;;8.45;7.75;;;27.00;58.20;;;;;;4979875;28;20038;-83
2023/06/18 07:55:42;;;;;;;9.13;8.32;;;27.50;57.30;;;;;;4977747;28;20136;-81
2023/06/18 07:58:11;;;;;;;8.88;7.97;;;28.10;56.40;;;;;;4986224;28;20046;-82
2023/06/18 08:00:37;;;;;;;9.93;9.13;;;28.80;55.30;;;;;;4980829;28;20038;-82
2023/06/18 08:03:04;;;;;;;9.90;8.95;;;29.40;54.20;;;;;;4980912;28;20050;-83
2023/06/18 08:05:29;;;;;;;8.95;8.23;;;29.70;53.50;;;;;;4978069;28;20034;-82
2023/06/18 08:07:58;;;;;;;10.10;9.25;;;29.90;53.30;;;;;;4976373;28;20038;-81
2023/06/18 08:10:24;;;;;;;10.13;9.23;;;30.20;53.10;;;;;;4978509;28;20124;-83
2023/06/18 08:12:50;;;;;;;10.73;9.93;;;30.30;52.80;;;;;;4982547;28;20072;-82
2023/06/18 08:15:19;;;;;;;11.60;10.60;;;30.50;52.50;;;;;;4991589;28;20414;-84
2023/06/18 08:17:45;;;;;;;10.77;9.70;;;30.70;52.20;;;;;;4980223;28;20078;-83
2023/06/18 08:20:11;;;;;;;11.05;10.15;;;30.70;51.80;;;;;;4981695;28;20046;-81
2023/06/18 08:22:37;;;;;;;11.23;10.32;;;30.90;51.60;;;;;;4981224;28;20042;-82
2023/06/18 08:25:07;;;;;;;10.98;9.88;;;30.90;51.20;;;;;;4992403;28;20034;-87
2023/06/18 08:27:33;;;;;;;11.13;10.23;;;31.00;51.00;;;;;;4977286;28;20049;-87
2023/06/18 08:30:06;;;;;;;11.05;10.15;;;30.90;50.80;;;;;;4987291;28;20532;-89
2023/06/18 08:32:33;;;;;;;15.90;10.57;;;31.00;50.60;;;;;;4983554;28;20053;-87
2023/06/18 08:35:02;;;;;;;10.20;9.30;;;31.10;50.40;;;;;;4979968;28;20046;-88
2023/06/18 08:37:28;;;;;;;11.27;10.27;;;31.20;50.20;;;;;;4984336;28;20038;-87
2023/06/18 08:40:07;;;;;;;10.52;9.60;;;31.50;49.90;;;;;;4984454;28;20516;-88
2023/06/18 08:42:33;;;;;;;10.20;9.13;;;31.80;49.40;;;;;;4984684;28;20069;-85
2023/06/18 08:45:00;;;;;;;9.00;8.20;;;31.90;49.10;;;;;;4985101;28;20117;-87
2023/06/18 08:47:28;;;;;;;12.77;11.45;;;32.00;48.80;;;;;;4982063;28;20234;-82
2023/06/18 08:49:58;;;;;;;14.40;12.93;;;32.20;48.60;;;;;;4994481;28;20061;-84
2023/06/18 08:52:29;;;;;;;14.65;13.15;;;32.10;47.60;;;;;;4975772;28;20035;-83
2023/06/18 08:55:06;;;;;;;14.98;13.60;;;31.90;47.10;;;;;;4982673;28;20501;-85
2023/06/18 08:58:06;;;;;;;14.93;13.50;;;31.60;46.60;;;;;;4984505;28;20125;-83
2023/06/18 09:00:51;;;;;;;14.85;13.63;;;31.30;46.40;;;;;;5003917;28;20045;-89
2023/06/18 09:03:21;;;;;;;15.05;13.73;;;31.10;46.60;;;;;;4969305;28;20027;-87
2023/06/18 09:05:49;;;;;;;14.73;13.15;;;31.00;46.40;;;;;;4997794;28;20038;-89
2023/06/18 09:08:16;;;;;;;13.63;11.48;;;30.90;46.30;;;;;;4986723;28;20081;-86
2023/06/18 09:10:42;;;;;;;12.73;11.63;;;30.60;46.40;;;;;;4993935;28;20535;-94
2023/06/18 09:13:14;;;;;;;13.27;12.07;;;30.40;46.80;;;;;;4996639;28;20073;-91
2023/06/18 09:15:40;;;;;;;13.93;12.70;;;30.20;46.90;;;;;;4998429;28;20094;-84
2023/06/18 09:18:06;;;;;;;13.55;12.00;;;30.10;46.90;;;;;;4998469;28;20046;-86
2023/06/18 09:20:38;;;;;;;14.07;12.02;;;30.00;46.80;;;;;;4998902;28;20057;-86
2023/06/18 09:23:08;;;;;;;12.80;11.70;;;30.00;46.70;;;;;;4996940;28;20049;-88
2023/06/18 09:25:34;;;;;;;13.85;12.65;;;30.00;46.60;;;;;;4994053;28;20049;-93
2023/06/18 09:28:04;;;;;;;13.82;12.68;;;30.00;47.30;;;;;;4996538;28;20050;-92
2023/06/18 09:30:30;;;;;;;13.55;12.38;;;29.90;46.60;;;;;;5001094;28;20057;-92
2023/06/18 09:33:05;;;;;;;13.18;11.98;;;29.90;46.70;;;;;;4978228;28;20194;-91
2023/06/18 09:35:31;;;;;;;12.20;11.10;;;29.90;46.80;;;;;;4991655;28;20403;-95
2023/06/18 09:38:08;;;;;;;11.85;10.85;;;29.90;47.10;;;;;;4988580;28;20065;-90
2023/06/18 09:40:34;;;;;;;12.57;11.48;;;29.90;47.50;;;;;;4987722;28;20066;-93
2023/06/18 09:43:10;;;;;;;12.65;11.65;;;29.80;47.80;;;;;;5021668;28;20041;-95
2023/06/18 09:46:10;;;;;;;12.70;11.60;;;29.70;48.20;;;;;;5008221;28;20105;-92
2023/06/18 09:48:44;;;;;;;13.20;12.10;;;29.60;48.40;;;;;;4994356;28;20046;-94
2023/06/18 09:51:20;;;;;;;12.18;11.05;;;29.50;48.70;;;;;;4996097;28;20034;-93
2023/06/18 09:53:57;;;;;;;12.57;11.30;;;29.50;49.00;;;;;;4981626;28;20425;-95
2023/06/18 09:56:27;;;;;;;12.43;11.32;;;29.50;49.30;;;;;;4995067;28;20287;-94
2023/06/18 09:59:05;;;;;;;13.23;11.93;;;29.50;49.60;;;;;;5014932;28;20388;-96
2023/06/18 10:01:50;;;;;;;12.65;11.40;;;29.50;49.70;;;;;;4997774;28;20468;-94
2023/06/18 10:04:19;;;;;;;12.82;11.57;;;29.50;49.80;;;;;;5007225;28;20809;-93
2023/06/18 10:07:15;;;;;;;12.93;11.63;;;29.50;49.90;;;;;;4974344;28;20034;-90
2023/06/18 10:09:48;;;;;;;12.23;11.00;;;29.60;50.00;;;;;;4973458;28;20036;-91
2023/06/18 10:12:18;;;;;;;14.95;12.70;;;29.60;50.00;;;;;;4976843;28;20022;-89
2023/06/18 10:14:45;;;;;;;12.43;11.25;;;29.70;50.60;;;;;;4984969;28;20080;-89
2023/06/18 10:17:20;;;;;;;12.73;11.63;;;29.70;50.00;;;;;;4984287;28;20129;-89
2023/06/18 10:20:18;;;;;;;12.18;11.20;;;29.70;50.00;;;;;;4985318;28;20033;-85
2023/06/18 10:22:57;;;;;;;13.38;11.98;;;29.80;50.00;;;;;;4976453;28;20105;-85
2023/06/18 10:25:24;;;;;;;13.43;12.32;;;29.80;50.00;;;;;;4988273;28;20030;-85
2023/06/18 10:27:51;;;;;;;13.18;12.00;;;29.80;50.00;;;;;;4986881;28;20056;-85
2023/06/18 10:30:18;;;;;;;13.90;12.70;;;29.90;50.00;;;;;;4982063;28;20037;-85
2023/06/18 10:32:46;;;;;;;13.48;12.35;;;29.90;49.90;;;;;;4976651;28;20484;-85
2023/06/18 10:35:13;;;;;;;13.73;12.20;;;29.90;49.80;;;;;;4985736;28;20085;-82
2023/06/18 10:37:44;;;;;;;13.82;12.55;;;29.90;49.80;;;;;;4986470;28;20141;-87
2023/06/18 10:40:12;;;;;;;14.13;12.82;;;29.90;49.70;;;;;;4983313;28;20114;-85
2023/06/18 10:42:38;;;;;;;15.00;13.63;;;30.00;49.70;;;;;;4980554;28;20037;-84
2023/06/18 10:45:17;;;;;;;15.27;13.75;;;30.00;49.60;;;;;;4975431;28;20041;-85
2023/06/18 10:47:44;;;;;;;13.65;12.55;;;30.10;49.40;;;;;;4980620;28;20113;-82
2023/06/18 10:50:12;;;;;;;13.57;12.18;;;30.10;49.30;;;;;;4995624;28;20084;-81
2023/06/18 10:52:49;;;;;;;14.77;13.48;;;30.10;49.30;;;;;;4981894;28;20100;-84
2023/06/18 10:55:18;;;;;;;14.07;12.88;;;30.10;49.40;;;;;;4979739;28;20034;-82
2023/06/18 10:57:46;;;;;;;13.30;12.05;;;30.10;49.40;;;;;;4996834;28;20128;-85
2023/06/18 11:00:21;;;;;;;13.10;12.00;;;30.00;49.40;;;;;;4982929;28;20092;-85
2023/06/18 11:02:51;;;;;;;12.40;11.30;;;30.00;49.60;;;;;;4979290;28;20219;-85
2023/06/18 11:05:32;;;;;;;16.73;14.95;;;30.00;49.70;;;;;;4980045;28;20026;-83
2023/06/18 11:08:10;;;;;;;13.63;12.38;;;30.00;50.00;;;;;;4972574;28;20041;-80
2023/06/18 11:10:45;;;;;;;12.20;11.05;;;30.00;50.10;;;;;;4970549;28;20057;-82
2023/06/18 11:13:16;;;;;;;11.45;10.45;;;30.00;50.20;;;;;;4975119;28;20035;-83
2023/06/18 11:16:10;;;;;;;11.40;10.32;;;30.10;50.40;;;;;;4977845;28;20526;-82
2023/06/18 11:18:43;;;;;;;13.85;11.73;;;30.10;50.50;;;;;;4982595;28;20034;-81
2023/06/18 11:21:16;;;;;;;13.85;12.50;;;30.00;50.30;;;;;;4985489;28;20038;-81
2023/06/18 11:23:42;;;;;;;10.85;9.45;;;30.00;50.30;;;;;;4978582;28;20034;-81
2023/06/18 11:26:14;;;;;;;11.20;9.45;;;30.00;50.40;;;;;;4981950;28;20046;-81
2023/06/18 11:28:41;;;;;;;10.82;9.82;;;29.90;50.50;;;;;;4980986;28;20125;-81
2023/06/18 11:31:07;;;;;;;10.65;9.70;;;29.90;50.60;;;;;;4978203;28;20080;-82
2023/06/18 11:33:36;;;;;;;13.25;10.70;;;29.80;50.50;;;;;;4993397;28;20070;-83
2023/06/18 11:36:11;;;;;;;9.25;8.40;;;29.80;50.50;;;;;;4977215;28;20088;-81
2023/06/18 11:38:38;;;;;;;8.90;8.00;;;29.70;50.30;;;;;;4975501;28;20038;-79
2023/06/18 11:41:05;;;;;;;9.45;8.57;;;29.70;50.40;;;;;;4984297;28;21228;-82
2023/06/18 11:43:46;;;;;;;14.10;9.30;;;29.70;50.40;;;;;;4981031;28;20042;-80
2023/06/18 11:46:27;;;;;;;10.38;9.38;;;29.60;50.20;;;;;;4981874;28;20089;-82
2023/06/18 11:48:54;;;;;;;8.52;7.82;;;29.60;50.30;;;;;;4988212;28;20049;-81
2023/06/18 11:51:27;;;;;;;9.07;8.27;;;29.60;50.30;;;;;;4981547;28;20068;-81
2023/06/18 11:53:54;;;;;;;8.57;7.88;;;29.60;50.30;;;;;;4982138;28;20042;-80
2023/06/18 11:56:26;;;;;;;8.63;7.72;;;29.70;50.10;;;;;;4985126;28;20045;-84
2023/06/18 11:58:59;;;;;;;10.15;8.20;;;29.70;50.00;;;;;;5004523;28;20052;-83
2023/06/18 12:01:30;;;;;;;8.85;7.95;;;29.80;49.90;;;;;;4978116;28;20473;-84
2023/06/18 12:04:07;;;;;;;8.70;7.90;;;29.80;49.80;;;;;;4979756;28;20057;-85
2023/06/18 12:06:37;;;;;;;7.70;6.90;;;29.90;49.80;;;;;;5000579;28;20100;-79
2023/06/18 12:09:10;;;;;;;8.38;7.47;;;29.90;49.80;;;;;;4984711;28;20034;-82
2023/06/18 12:11:55;;;;;;;7.75;7.05;;;30.10;49.70;;;;;;4981194;28;20374;-91
2023/06/18 12:15:12;;;;;;;7.93;7.28;;;30.10;49.20;;;;;;4995060;28;20050;-87
2023/06/18 12:18:10;;;;;;;8.30;7.03;;;30.20;49.10;;;;;;4974979;28;20096;-94
2023/06/18 12:20:39;;;;;;;9.63;8.57;;;30.30;48.90;;;;;;4984769;28;20037;-89
2023/06/18 12:23:06;;;;;;;10.20;8.85;;;30.40;48.80;;;;;;4999619;28;20461;-84
2023/06/18 12:25:48;;;;;;;13.32;8.90;;;30.50;48.60;;;;;;4993127;28;20567;-82
2023/06/18 12:28:14;;;;;;;17.98;9.70;;;30.70;48.30;;;;;;4992041;28;20061;-79
2023/06/18 12:30:45;;;;;;;10.65;9.65;;;30.90;48.40;;;;;;4981004;28;20052;-83
2023/06/18 12:33:13;;;;;;;11.95;10.13;;;31.00;48.30;;;;;;4985419;28;20996;-80
2023/06/18 12:35:48;;;;;;;12.45;10.45;;;31.20;48.00;;;;;;5002189;28;20122;-81
2023/06/18 12:38:20;;;;;;;10.52;8.98;;;31.30;47.70;;;;;;4984360;28;20046;-84
2023/06/18 12:40:56;;;;;;;9.75;7.93;;;31.40;47.50;;;;;;4982122;28;20070;-81
2023/06/18 12:43:41;;;;;;;8.13;6.75;;;31.60;47.60;;;;;;4977455;28;20042;-80
2023/06/18 12:46:26;;;;;;;7.25;5.68;;;31.90;47.50;;;;;;4990068;28;20033;-82
2023/06/18 12:48:54;;;;;;;6.97;5.57;;;32.10;47.30;;;;;;4983132;28;20280;-82
2023/06/18 12:51:21;;;;;;;5.75;5.25;;;32.30;47.10;;;;;;4981160;28;20054;-83
2023/06/18 12:53:56;;;;;;;6.70;5.05;;;32.50;46.90;;;;;;4992507;28;20030;-83
2023/06/18 12:56:26;;;;;;;6.07;4.70;;;32.70;46.70;;;;;;4988173;28;20042;-85